createdAt,value
2019-05-14T00:02:59.568Z,2.16
2019-05-14T00:08:06.745Z,2.34
2019-05-14T00:13:13.888Z,2.13
2019-05-14T00:18:22.406Z,2.30
2019-05-14T00:23:27.698Z,2.16
2019-05-14T00:28:34.811Z,2.03
2019-05-14T00:33:42.214Z,2.11
2019-05-14T00:38:51.246Z,1.96
2019-05-14T00:43:55.989Z,1.99
2019-05-14T00:49:03.134Z,2.18
2019-05-14T00:54:11.213Z,1.93
2019-05-14T00:59:16.889Z,1.99
2019-05-14T01:04:24.028Z,1.92
2019-05-14T01:09:31.555Z,2.11
2019-05-14T01:14:38.296Z,2.16
2019-05-14T01:19:45.413Z,2.15
2019-05-14T01:24:52.592Z,1.99
2019-05-14T01:30:01.881Z,1.99
2019-05-14T01:35:06.371Z,2.24
2019-05-14T01:40:13.513Z,2.19
2019-05-14T01:45:27.222Z,2.10
2019-05-14T01:50:27.476Z,2.11
2019-05-14T01:55:34.609Z,2.13
2019-05-14T02:00:41.774Z,2.12
2019-05-14T02:05:48.849Z,2.09
2019-05-14T02:10:55.989Z,2.02
2019-05-14T02:16:03.308Z,1.86
2019-05-14T02:21:11.803Z,1.94
2019-05-14T02:26:17.065Z,2.10
2019-05-14T02:31:24.218Z,1.98
2019-05-14T02:36:31.341Z,2.09
2019-05-14T02:41:39.369Z,2.00
2019-05-14T02:46:45.140Z,2.15
2019-05-14T02:51:52.266Z,2.09
2019-05-14T02:57:00.085Z,2.32
2019-05-14T03:02:05.053Z,2.32
2019-05-14T03:07:12.189Z,2.43
2019-05-14T03:12:19.545Z,2.52
2019-05-14T03:17:29.786Z,2.62
2019-05-14T03:22:52.551Z,2.53
2019-05-14T03:27:40.720Z,2.67
2019-05-14T03:32:52.115Z,2.83
2019-05-14T03:37:53.356Z,2.73
2019-05-14T03:43:00.465Z,2.81
2019-05-14T03:48:10.327Z,2.90
2019-05-14T03:53:14.326Z,2.88
2019-05-14T03:58:21.620Z,2.91
2019-05-14T04:03:29.494Z,3.23
2019-05-14T04:08:35.241Z,3.29
2019-05-14T04:13:42.331Z,3.57
2019-05-14T04:18:50.391Z,3.94
2019-05-14T04:23:58.815Z,4.08
2019-05-14T04:29:02.734Z,4.32
2019-05-14T04:34:10.737Z,4.46
2019-05-14T04:39:19.258Z,4.39
2019-05-14T04:44:23.163Z,4.67
2019-05-14T04:49:30.386Z,4.26
2019-05-14T04:54:39.392Z,4.06
2019-05-14T04:59:44.157Z,4.23
2019-05-14T05:04:51.433Z,4.24
2019-05-14T05:09:59.288Z,5.66
2019-05-14T05:15:05.184Z,5.93
2019-05-14T05:20:12.305Z,4.78
2019-05-14T05:25:19.445Z,4.31
2019-05-14T05:30:26.573Z,4.41
2019-05-14T05:35:33.695Z,4.70
2019-05-14T05:40:40.843Z,4.74
2019-05-14T05:45:48.574Z,4.83
2019-05-14T05:50:54.684Z,5.20
2019-05-14T05:56:01.852Z,5.20
2019-05-14T06:01:09.789Z,5.28
2019-05-14T06:06:15.627Z,5.94
2019-05-14T06:11:22.758Z,5.26
2019-05-14T06:16:29.931Z,5.40
2019-05-14T06:21:39.605Z,5.41
2019-05-14T06:26:43.701Z,5.60
2019-05-14T06:31:50.854Z,5.86
2019-05-14T06:36:59.220Z,5.43
2019-05-14T06:42:04.621Z,5.56
2019-05-14T06:47:11.742Z,5.41
2019-05-14T06:52:18.951Z,5.45
2019-05-14T06:57:28.383Z,5.61
2019-05-14T07:02:32.849Z,5.28
2019-05-14T07:07:40.680Z,5.38
2019-05-14T07:12:49.722Z,5.54
2019-05-14T07:17:54.150Z,5.21
2019-05-14T07:23:01.308Z,5.25
2019-05-14T07:28:08.904Z,5.18
2019-05-14T07:33:15.140Z,5.05
2019-05-14T07:38:22.283Z,5.09
2019-05-14T07:43:29.422Z,4.64
2019-05-14T07:48:38.966Z,4.54
2019-05-14T07:53:43.236Z,4.71
2019-05-14T07:58:50.388Z,4.27
2019-05-14T08:04:00.198Z,3.97
2019-05-14T08:09:04.312Z,3.79
2019-05-14T08:14:11.392Z,3.79
2019-05-14T08:19:26.496Z,3.66
2019-05-14T08:24:27.100Z,3.75
2019-05-14T08:29:31.878Z,3.91
2019-05-14T08:34:39.148Z,3.33
2019-05-14T08:39:48.541Z,3.53
2019-05-14T08:44:52.833Z,3.51
2019-05-14T08:50:00.231Z,3.22
2019-05-14T08:55:11.041Z,2.50
2019-05-14T09:00:14.242Z,2.70
2019-05-14T09:05:20.436Z,2.49
2019-05-14T09:10:28.537Z,2.49
2019-05-14T09:15:34.275Z,2.52
2019-05-14T09:20:41.392Z,2.66
2019-05-14T09:25:52.364Z,2.44
2019-05-14T09:30:55.215Z,2.60
2019-05-14T09:36:14.797Z,2.52
2019-05-14T09:41:14.997Z,2.45
2019-05-14T09:46:15.641Z,2.63
2019-05-14T09:51:22.737Z,3.00
2019-05-14T09:56:29.905Z,3.26
2019-05-14T10:01:38.365Z,3.12
2019-05-14T10:06:43.646Z,3.10
2019-05-14T10:11:50.826Z,2.63
2019-05-14T10:16:58.353Z,2.54
2019-05-14T10:22:05.100Z,2.36
2019-05-14T10:27:12.263Z,2.35
2019-05-14T10:32:19.467Z,2.54
2019-05-14T10:37:28.801Z,2.57
2019-05-14T10:42:33.232Z,2.50
2019-05-14T10:47:40.366Z,2.39
2019-05-14T10:52:50.425Z,2.39
2019-05-14T10:57:53.349Z,2.18
2019-05-14T11:02:54.210Z,2.28
2019-05-14T11:08:01.360Z,2.14
2019-05-14T11:13:09.127Z,2.22
2019-05-14T11:18:15.237Z,2.41
2019-05-14T11:23:22.361Z,2.20
2019-05-14T11:28:29.500Z,2.34
2019-05-14T11:33:38.757Z,2.28
2019-05-14T11:38:43.376Z,2.39
2019-05-14T11:43:50.632Z,2.00
2019-05-14T11:48:59.404Z,2.34
2019-05-14T11:54:04.372Z,2.02
2019-05-14T11:59:11.572Z,2.26
2019-05-14T12:04:18.892Z,2.00
2019-05-14T12:09:28.219Z,2.17
2019-05-14T12:14:32.512Z,2.15
2019-05-14T12:19:43.013Z,2.06
2019-05-14T12:24:46.449Z,2.05
2019-05-14T12:29:53.622Z,1.93
2019-05-14T12:35:00.725Z,2.14
2019-05-14T12:40:08.814Z,1.98
2019-05-14T12:45:14.474Z,1.89
2019-05-14T12:50:21.615Z,1.99
2019-05-14T12:55:28.825Z,1.89
2019-05-14T13:00:35.844Z,2.02
2019-05-14T13:05:42.964Z,2.10
2019-05-14T13:10:50.134Z,2.27
2019-05-14T13:15:57.208Z,2.12
2019-05-14T13:21:04.357Z,2.00
2019-05-14T13:26:11.567Z,2.06
2019-05-14T13:31:18.709Z,2.12
2019-05-14T13:36:28.584Z,2.03
2019-05-14T13:41:32.497Z,2.02
2019-05-14T13:46:39.702Z,2.10
2019-05-14T13:51:48.943Z,1.94
2019-05-14T13:56:53.541Z,1.92
2019-05-14T14:02:00.669Z,2.02
2019-05-14T14:07:09.045Z,1.88
2019-05-14T14:12:14.573Z,1.98
2019-05-14T14:17:21.752Z,1.89
2019-05-14T14:22:28.944Z,1.89
2019-05-14T14:27:39.863Z,1.83
2019-05-14T14:32:42.887Z,1.93
2019-05-14T14:37:49.933Z,2.03
2019-05-14T14:42:59.286Z,1.94
2019-05-14T14:48:03.782Z,1.91
2019-05-14T14:53:11.057Z,1.86
2019-05-14T14:58:20.014Z,1.87
2019-05-14T15:03:24.914Z,1.64
2019-05-14T15:08:32.016Z,1.53
2019-05-14T15:13:39.412Z,1.71
2019-05-14T15:18:49.657Z,1.75
2019-05-14T15:24:05.538Z,1.79
2019-05-14T15:29:00.104Z,1.95
2019-05-14T15:34:09.043Z,1.67
2019-05-14T15:39:13.958Z,1.70
2019-05-14T15:44:21.217Z,1.71
2019-05-14T15:49:28.466Z,1.69
2019-05-14T15:54:42.146Z,1.54
2019-05-14T15:59:42.262Z,1.70
2019-05-14T16:04:49.428Z,1.91
2019-05-14T16:09:56.600Z,1.83
2019-05-14T16:15:03.792Z,2.81
2019-05-14T16:20:10.955Z,3.22
2019-05-14T16:25:19.050Z,2.28
2019-05-14T16:30:24.856Z,2.67
2019-05-14T16:35:31.987Z,1.62
2019-05-14T16:40:39.678Z,1.60
2019-05-14T16:45:49.114Z,1.81
2019-05-14T16:50:54.693Z,1.61
2019-05-14T16:56:01.906Z,1.55
2019-05-14T17:01:09.984Z,1.56
2019-05-14T17:06:18.515Z,1.47
2019-05-14T17:11:23.778Z,1.54
2019-05-14T17:16:32.917Z,1.43
2019-05-14T17:21:40.074Z,1.54
2019-05-14T17:26:48.889Z,1.47
2019-05-14T17:31:53.772Z,1.48
2019-05-14T17:37:00.901Z,1.67
2019-05-14T17:42:11.678Z,2.53
2019-05-14T17:47:14.803Z,2.04
2019-05-14T17:52:22.158Z,1.88
2019-05-14T17:57:35.050Z,1.58
2019-05-14T18:02:37.481Z,1.53
2019-05-14T18:07:45.428Z,1.51
2019-05-14T18:12:52.698Z,1.55
2019-05-14T18:17:59.948Z,1.51
2019-05-14T18:23:11.503Z,1.49
2019-05-14T18:28:14.596Z,1.49
2019-05-14T18:33:23.200Z,1.53
2019-05-14T18:38:30.449Z,1.50
2019-05-14T18:43:37.545Z,1.56
2019-05-14T18:48:44.690Z,1.53
2019-05-14T18:53:51.840Z,1.50
2019-05-14T18:58:59.077Z,1.54
2019-05-14T19:04:08.280Z,1.46
2019-05-14T19:09:13.495Z,1.61
2019-05-14T19:14:20.955Z,1.54
2019-05-14T19:19:29.408Z,1.54
2019-05-14T19:24:35.157Z,1.49
2019-05-14T19:29:42.330Z,1.59
2019-05-14T19:34:49.719Z,1.48
2019-05-14T19:39:58.734Z,1.46
2019-05-14T19:45:08.462Z,1.55
2019-05-14T19:50:18.576Z,1.50
2019-05-14T19:55:24.028Z,1.58
2019-05-14T20:00:32.382Z,1.93
2019-05-14T20:05:40.603Z,1.56
2019-05-14T20:10:48.938Z,1.70
2019-05-14T20:15:55.159Z,1.66
2019-05-14T20:21:02.314Z,1.88
2019-05-14T20:26:10.701Z,1.81
2019-05-14T20:31:19.112Z,1.88
2019-05-14T20:36:28.229Z,1.90
2019-05-14T20:41:35.209Z,1.74
2019-05-14T20:46:43.335Z,1.66
2019-05-14T20:51:52.504Z,1.62
2019-05-14T20:57:00.072Z,1.59
2019-05-14T21:02:08.671Z,1.82
2019-05-14T21:07:15.781Z,2.27
2019-05-14T21:12:22.891Z,2.47
2019-05-14T21:17:30.022Z,2.51
2019-05-14T21:22:39.684Z,2.69
2019-05-14T21:27:48.237Z,2.69
2019-05-14T21:32:50.500Z,2.85
2019-05-14T21:37:59.394Z,2.52
2019-05-14T21:43:04.269Z,2.30
2019-05-14T21:48:11.407Z,2.19
2019-05-14T21:53:19.123Z,2.16
2019-05-14T21:58:25.232Z,2.02
2019-05-14T22:03:32.414Z,2.37
2019-05-14T22:08:39.625Z,2.29
2019-05-14T22:13:46.876Z,2.16
2019-05-14T22:18:54.014Z,2.09
2019-05-14T22:24:01.147Z,2.15
2019-05-14T22:29:08.434Z,2.08
2019-05-14T22:34:15.431Z,2.20
2019-05-14T22:39:22.791Z,2.21
2019-05-14T22:44:29.945Z,2.27
2019-05-14T22:49:37.182Z,2.29
2019-05-14T22:54:44.518Z,2.12
2019-05-14T22:59:51.611Z,2.11
2019-05-14T23:04:58.727Z,2.23
2019-05-14T23:10:05.907Z,2.14
2019-05-14T23:15:13.024Z,2.16
2019-05-14T23:20:20.088Z,2.23
2019-05-14T23:25:29.162Z,2.34
2019-05-14T23:30:34.182Z,2.41
2019-05-14T23:35:41.333Z,2.66
2019-05-14T23:40:49.292Z,2.60
2019-05-14T23:45:55.366Z,2.40
2019-05-14T23:51:02.459Z,2.34
2019-05-14T23:56:09.585Z,2.43
